Terminal Aerodrome Forecast
Issued by NWS

Home | Current Version | Previous Version | Text Only | Print | Product List | Glossary On
Versions: 1 2 3 4 5 6 7 8 9 10 11 12 13 14 15 16
000
FTAK31 PAFA 192322
TAFABT
TAF
PABT 192322Z 2000/2024 00000KT P6SM VCSH FEW028 SCT035 BKN100
     FM201500 36004KT 3SM BR SCT004 BKN080
     FM201800 VRB03KT P6SM BKN100=

USA.gov is the U.S. government's official web portal to all federal, state and local government web resources and services.